Time;durP1;ratioP1;P1;durP2;ratioP2;P2;SDS_P1;SDS_P2;PMS_P1;PMS_P2;Temp;Humidity;BMP_temperature;BMP_pressure;BME280_temperature;BME280_humidity;BME280_pressure;Samples;Min_cycle;Max_cycle;Signal;HPM_P1;HPM_P2
2021/11/01 00:02:19;;;;;;;29.27;5.33;;;10.90;99.90;;;;;;5009528;28;20199;-83
2021/11/01 00:04:46;;;;;;;20.50;3.93;;;10.90;99.90;;;;;;5011206;28;20202;-81
2021/11/01 00:07:14;;;;;;;19.03;4.43;;;10.90;99.90;;;;;;5028879;28;20245;-81
2021/11/01 00:09:41;;;;;;;17.73;4.20;;;10.90;99.90;;;;;;5024831;28;20235;-83
2021/11/01 00:12:08;;;;;;;20.20;3.80;;;10.90;99.90;;;;;;5012224;28;20207;-82
2021/11/01 00:14:35;;;;;;;23.43;3.97;;;11.00;99.90;;;;;;5011163;28;20210;-81
2021/11/01 00:17:04;;;;;;;18.77;4.77;;;11.00;99.90;;;;;;5010711;28;20196;-82
2021/11/01 00:19:30;;;;;;;17.83;3.70;;;11.00;99.90;;;;;;5011348;28;20206;-82
2021/11/01 00:21:57;;;;;;;20.90;3.20;;;11.00;99.90;;;;;;5011303;28;20232;-81
2021/11/01 00:24:24;;;;;;;19.80;5.33;;;11.10;99.90;;;;;;5012706;28;20199;-83
2021/11/01 00:26:51;;;;;;;18.93;3.37;;;11.00;99.90;;;;;;5023108;28;20246;-83
2021/11/01 00:29:18;;;;;;;16.53;3.43;;;11.00;99.90;;;;;;5031012;28;20899;-83
2021/11/01 00:31:45;;;;;;;13.27;3.13;;;11.00;99.90;;;;;;5031456;28;20214;-82
2021/11/01 00:34:13;;;;;;;16.77;3.57;;;11.00;99.90;;;;;;5031747;28;20218;-83
2021/11/01 00:36:40;;;;;;;16.67;2.73;;;11.00;99.90;;;;;;5030547;28;20206;-81
2021/11/01 00:39:07;;;;;;;18.13;3.87;;;10.90;99.90;;;;;;5030413;28;20226;-82
2021/11/01 00:41:34;;;;;;;15.07;4.27;;;11.00;99.90;;;;;;5030783;28;20229;-81
2021/11/01 00:44:01;;;;;;;15.07;3.67;;;11.00;99.90;;;;;;5031160;28;20217;-82
2021/11/01 00:46:28;;;;;;;15.30;4.67;;;11.00;99.90;;;;;;5031598;28;20209;-84
2021/11/01 00:48:54;;;;;;;12.83;3.33;;;11.00;99.90;;;;;;5031355;28;20531;-83
2021/11/01 00:51:22;;;;;;;12.90;3.30;;;11.00;99.90;;;;;;5030677;28;20191;-84
2021/11/01 00:53:49;;;;;;;15.27;3.23;;;11.00;99.90;;;;;;5031301;28;20210;-81
2021/11/01 00:56:18;;;;;;;16.03;3.00;;;11.00;99.90;;;;;;5031060;28;20206;-82
2021/11/01 00:58:45;;;;;;;12.30;3.30;;;11.00;99.90;;;;;;5031634;28;20206;-82
2021/11/01 01:01:15;;;;;;;13.57;3.20;;;10.90;99.90;;;;;;5030466;28;20617;-81
2021/11/01 01:03:43;;;;;;;15.20;2.73;;;10.90;99.90;;;;;;5035628;28;20209;-82
2021/11/01 01:06:10;;;;;;;12.07;3.00;;;10.90;99.90;;;;;;5030727;28;20206;-82
2021/11/01 01:08:39;;;;;;;15.03;2.80;;;10.90;99.90;;;;;;5031603;28;20202;-81
2021/11/01 01:11:06;;;;;;;15.33;2.50;;;10.90;99.90;;;;;;5029763;28;20209;-82
2021/11/01 01:13:36;;;;;;;13.47;3.20;;;10.90;99.90;;;;;;5030038;28;20267;-83
2021/11/01 01:16:09;;;;;;;15.07;3.13;;;10.90;99.90;;;;;;5030925;28;20206;-83
2021/11/01 01:18:38;;;;;;;13.90;3.63;;;10.80;99.90;;;;;;5029849;28;20510;-83
2021/11/01 01:23:48;;;;;;;18.10;3.60;;;10.80;99.90;;;;;;5030202;28;20259;-83
2021/11/01 01:26:16;;;;;;;12.93;3.70;;;10.70;99.90;;;;;;5029652;28;20250;-83
2021/11/01 01:28:43;;;;;;;17.20;2.87;;;10.70;99.90;;;;;;5029783;28;20213;-81
2021/11/01 01:31:10;;;;;;;10.37;2.33;;;10.70;99.90;;;;;;5036238;28;20206;-82
2021/11/01 01:33:37;;;;;;;15.03;3.17;;;10.70;99.90;;;;;;5049404;28;20209;-82
2021/11/01 01:36:04;;;;;;;12.73;2.90;;;10.60;99.90;;;;;;5047357;28;20207;-82
2021/11/01 01:38:32;;;;;;;11.90;3.10;;;10.60;99.90;;;;;;5031081;28;20206;-83
2021/11/01 01:41:00;;;;;;;15.33;2.93;;;10.60;99.90;;;;;;5029613;28;20237;-83
2021/11/01 01:43:27;;;;;;;16.53;3.33;;;10.50;99.90;;;;;;5030392;28;20520;-84
2021/11/01 01:45:53;;;;;;;14.57;3.17;;;10.60;99.90;;;;;;5030704;28;20198;-84
2021/11/01 01:48:21;;;;;;;8.93;2.77;;;10.50;99.90;;;;;;5029240;28;20206;-84
2021/11/01 01:50:47;;;;;;;15.30;2.50;;;10.50;99.90;;;;;;5029967;28;20248;-84
2021/11/01 01:53:14;;;;;;;11.03;2.73;;;10.40;99.90;;;;;;5030452;28;20217;-82
2021/11/01 01:55:41;;;;;;;18.23;3.23;;;10.40;99.90;;;;;;5029704;28;20191;-82
2021/11/01 01:58:09;;;;;;;10.97;3.03;;;10.40;99.90;;;;;;5029801;28;20202;-82
2021/11/01 02:00:50;;;;;;;15.20;4.70;;;10.40;99.90;;;;;;5029814;28;20696;-83
2021/11/01 02:03:17;;;;;;;12.03;3.37;;;10.40;99.90;;;;;;5029696;28;20317;-82
2021/11/01 02:05:55;;;;;;;9.47;2.63;;;10.40;99.90;;;;;;5029865;28;20203;-83
2021/11/01 02:08:22;;;;;;;12.33;2.90;;;10.30;99.90;;;;;;5043352;28;20753;-83
2021/11/01 02:10:59;;;;;;;15.57;3.00;;;10.30;99.90;;;;;;5030106;28;20289;-83
2021/11/01 02:13:31;;;;;;;17.50;2.63;;;10.30;99.90;;;;;;5030099;28;20198;-82
2021/11/01 02:16:01;;;;;;;14.57;3.40;;;10.30;99.90;;;;;;5029949;28;20206;-83
2021/11/01 02:18:33;;;;;;;18.40;2.83;;;10.30;99.90;;;;;;5030058;28;20670;-83
2021/11/01 02:21:16;;;;;;;14.07;2.77;;;10.30;99.90;;;;;;5029436;28;20223;-83
2021/11/01 02:23:50;;;;;;;14.93;3.10;;;10.20;99.90;;;;;;5029876;28;20206;-81
2021/11/01 02:26:23;;;;;;;11.67;2.07;;;10.20;99.90;;;;;;5046407;28;20241;-82
2021/11/01 02:28:50;;;;;;;9.70;2.10;;;10.20;99.90;;;;;;5049118;28;20767;-83
2021/11/01 02:31:20;;;;;;;12.23;2.53;;;10.30;99.90;;;;;;5030589;28;20206;-82
2021/11/01 02:33:49;;;;;;;12.00;2.23;;;10.20;99.90;;;;;;5028598;28;20656;-83
2021/11/01 02:36:16;;;;;;;14.97;2.23;;;10.20;99.90;;;;;;5028934;28;20253;-83
2021/11/01 02:38:49;;;;;;;12.37;3.07;;;10.20;99.90;;;;;;5029879;28;20202;-83
2021/11/01 02:41:22;;;;;;;7.33;1.80;;;10.20;99.90;;;;;;5030280;28;20716;-82
2021/11/01 02:43:54;;;;;;;13.63;2.73;;;10.20;99.90;;;;;;5030238;28;20203;-83
2021/11/01 02:46:22;;;;;;;10.27;2.00;;;10.20;99.90;;;;;;5027830;28;20202;-83
2021/11/01 02:48:50;;;;;;;8.50;2.13;;;10.20;99.90;;;;;;5029298;28;20530;-82
2021/11/01 02:51:18;;;;;;;7.27;1.87;;;10.20;99.90;;;;;;5043997;28;20212;-84
2021/11/01 02:53:45;;;;;;;12.23;2.30;;;10.30;99.90;;;;;;5045982;28;20290;-81
2021/11/01 02:56:13;;;;;;;11.00;2.07;;;10.20;99.90;;;;;;5029286;28;20195;-82
2021/11/01 02:58:41;;;;;;;10.93;2.13;;;10.20;99.90;;;;;;5028081;28;20659;-83
2021/11/01 03:01:09;;;;;;;5.03;2.17;;;10.30;99.90;;;;;;5028949;28;20284;-83
2021/11/01 03:03:37;;;;;;;10.43;2.30;;;10.20;99.90;;;;;;5046506;28;20221;-83
2021/11/01 03:06:04;;;;;;;9.57;2.10;;;10.20;99.90;;;;;;5048729;28;20210;-84
2021/11/01 03:08:32;;;;;;;8.03;2.80;;;10.20;99.90;;;;;;5049090;28;20525;-83
2021/11/01 03:11:00;;;;;;;11.60;2.70;;;10.30;99.90;;;;;;5047565;28;20198;-82
2021/11/01 03:13:29;;;;;;;12.00;2.13;;;10.30;99.90;;;;;;5034012;28;20218;-83
2021/11/01 03:15:59;;;;;;;9.27;2.83;;;10.30;99.90;;;;;;5028661;28;20242;-81
2021/11/01 03:18:36;;;;;;;11.80;2.17;;;10.30;99.90;;;;;;5027991;28;20203;-81
2021/11/01 03:21:06;;;;;;;9.90;1.90;;;10.30;99.90;;;;;;5029838;28;20226;-82
2021/11/01 03:23:35;;;;;;;9.50;2.27;;;10.30;99.90;;;;;;5028766;28;20206;-82
2021/11/01 03:26:04;;;;;;;8.53;1.87;;;10.30;99.90;;;;;;5043332;28;20240;-81
2021/11/01 03:28:33;;;;;;;7.63;1.67;;;10.30;99.90;;;;;;5047909;28;20848;-83
2021/11/01 03:31:05;;;;;;;7.17;1.60;;;10.30;99.90;;;;;;5047316;28;20198;-81
2021/11/01 03:33:37;;;;;;;6.93;2.50;;;10.30;99.90;;;;;;5032479;28;20272;-82
2021/11/01 03:36:05;;;;;;;11.60;1.83;;;10.40;99.90;;;;;;5030762;28;20533;-82
2021/11/01 03:38:33;;;;;;;9.83;1.67;;;10.30;99.90;;;;;;5030975;28;20528;-82
2021/11/01 03:41:06;;;;;;;7.10;1.93;;;10.40;99.90;;;;;;5032021;28;20218;-83
2021/11/01 03:43:36;;;;;;;7.63;1.90;;;10.30;99.90;;;;;;5030532;28;20603;-82
2021/11/01 03:46:08;;;;;;;6.13;1.73;;;10.40;99.90;;;;;;5050055;28;20237;-82
2021/11/01 03:48:37;;;;;;;6.63;1.80;;;10.30;99.90;;;;;;5051349;28;20205;-82
2021/11/01 03:51:08;;;;;;;7.67;1.73;;;10.30;99.90;;;;;;5051444;28;20240;-81
2021/11/01 03:53:36;;;;;;;6.53;1.77;;;10.30;99.90;;;;;;5043038;28;20206;-82
2021/11/01 03:56:04;;;;;;;4.20;1.40;;;10.30;99.90;;;;;;5032326;28;20203;-83
2021/11/01 03:58:31;;;;;;;8.40;2.37;;;10.30;99.90;;;;;;5032163;28;20199;-81
2021/11/01 04:00:58;;;;;;;5.67;1.57;;;10.30;99.90;;;;;;5031008;28;20207;-81
2021/11/01 04:03:28;;;;;;;5.67;1.60;;;10.30;99.90;;;;;;5031822;28;20512;-81
2021/11/01 04:05:59;;;;;;;5.87;1.77;;;10.20;99.90;;;;;;5031733;28;20201;-82
2021/11/01 04:08:26;;;;;;;6.10;1.50;;;10.20;99.90;;;;;;5030936;28;20206;-81
2021/11/01 04:10:54;;;;;;;9.10;1.87;;;10.20;99.90;;;;;;5031261;28;20289;-82
2021/11/01 04:13:21;;;;;;;6.63;1.43;;;10.20;99.90;;;;;;5030496;28;20206;-82
2021/11/01 04:15:54;;;;;;;5.47;1.67;;;10.10;99.90;;;;;;5030356;28;20246;-82
2021/11/01 04:18:27;;;;;;;8.83;1.73;;;10.20;99.90;;;;;;5051451;28;20606;-81
2021/11/01 04:20:55;;;;;;;10.17;1.60;;;10.20;99.90;;;;;;5051195;28;20218;-82
2021/11/01 04:23:27;;;;;;;7.10;1.60;;;10.20;99.90;;;;;;5050624;28;20308;-82
2021/11/01 04:25:54;;;;;;;6.23;1.73;;;10.20;99.90;;;;;;5050450;28;20241;-81
2021/11/01 04:28:21;;;;;;;4.43;1.40;;;10.30;99.90;;;;;;5050906;28;20252;-81
2021/11/01 04:30:53;;;;;;;6.73;1.73;;;10.30;99.90;;;;;;5050875;28;20194;-83
2021/11/01 04:33:23;;;;;;;8.97;1.80;;;10.20;99.90;;;;;;5050400;28;20297;-83
2021/11/01 04:35:50;;;;;;;10.27;2.17;;;10.20;99.90;;;;;;5050914;28;20759;-84
2021/11/01 04:38:29;;;;;;;10.20;2.27;;;10.20;99.90;;;;;;5051130;28;20491;-82
2021/11/01 04:41:04;;;;;;;8.10;1.77;;;10.10;99.90;;;;;;5032355;28;20229;-83
2021/11/01 04:54:28;;;;;;;7.57;2.93;;;10.00;99.90;;;;;;5029930;28;20289;-85
2021/11/01 04:56:54;;;;;;;9.43;2.27;;;10.00;99.90;;;;;;5038189;28;20210;-81
2021/11/01 04:59:22;;;;;;;7.43;1.70;;;10.00;99.90;;;;;;5050438;28;20208;-82
2021/11/01 05:01:51;;;;;;;11.23;2.37;;;10.00;99.90;;;;;;5050433;28;20222;-84
2021/11/01 05:04:22;;;;;;;7.23;2.13;;;9.90;99.90;;;;;;5049790;28;20297;-81
2021/11/01 05:06:51;;;;;;;9.40;2.13;;;10.00;99.90;;;;;;5050667;28;20226;-81
2021/11/01 05:09:22;;;;;;;11.00;2.27;;;9.90;99.90;;;;;;5033652;28;20210;-80
2021/11/01 05:12:00;;;;;;;8.90;2.10;;;9.90;99.90;;;;;;5030556;28;20314;-83
2021/11/01 05:14:33;;;;;;;6.77;2.10;;;9.90;99.90;;;;;;5031659;28;20214;-83
2021/11/01 05:17:13;;;;;;;8.30;2.37;;;9.90;99.90;;;;;;5045876;28;20217;-82
2021/11/01 05:19:46;;;;;;;8.97;2.00;;;9.90;99.90;;;;;;5051003;28;20281;-82
2021/11/01 05:22:19;;;;;;;8.70;2.40;;;9.80;99.90;;;;;;5050749;28;20222;-82
2021/11/01 05:24:48;;;;;;;10.37;2.27;;;9.80;99.90;;;;;;5051234;28;20281;-80
2021/11/01 05:30:04;;;;;;;11.80;2.03;;;9.80;99.90;;;;;;5050283;28;20244;-81
2021/11/01 05:32:32;;;;;;;8.57;1.97;;;9.90;99.90;;;;;;5037976;28;20676;-82
2021/11/01 05:34:59;;;;;;;8.83;2.27;;;9.80;99.90;;;;;;5030501;28;20205;-83
2021/11/01 05:37:26;;;;;;;11.30;2.70;;;9.80;99.90;;;;;;5030081;28;20207;-82
2021/11/01 05:39:53;;;;;;;7.17;2.30;;;9.80;99.90;;;;;;5029265;28;20215;-83
2021/11/01 05:42:21;;;;;;;6.97;2.03;;;9.90;99.90;;;;;;5029381;28;20618;-83
2021/11/01 05:44:48;;;;;;;9.07;1.90;;;9.80;99.90;;;;;;5039542;23;20320;-81
2021/11/01 05:47:15;;;;;;;10.27;1.87;;;9.90;99.90;;;;;;5028921;28;20211;-82
2021/11/01 05:49:42;;;;;;;10.67;2.10;;;9.90;99.90;;;;;;5031544;28;20661;-82
2021/11/01 05:52:15;;;;;;;12.47;2.40;;;9.90;99.90;;;;;;5046837;28;20203;-81
2021/11/01 05:54:42;;;;;;;10.83;2.17;;;9.90;99.90;;;;;;5048837;28;20206;-81
2021/11/01 05:57:13;;;;;;;9.37;1.83;;;9.90;99.90;;;;;;5048434;28;20205;-82
2021/11/01 06:00:04;;;;;;;5.40;1.67;;;10.00;99.90;;;;;;5045100;28;20319;-82
2021/11/01 06:13:43;;;;;;;9.63;2.20;;;9.90;99.90;;;;;;5147151;27;20205;-82
2021/11/01 06:16:10;;;;;;;8.30;2.20;;;9.90;99.90;;;;;;5146915;27;20206;-82
2021/11/01 06:18:38;;;;;;;8.87;2.77;;;9.90;99.90;;;;;;5139196;27;20192;-82
2021/11/01 06:21:06;;;;;;;11.47;2.80;;;9.90;99.90;;;;;;5125411;28;20242;-80
2021/11/01 06:23:34;;;;;;;8.23;2.03;;;9.90;99.90;;;;;;5125970;27;20206;-80
2021/11/01 06:26:02;;;;;;;13.23;2.70;;;10.00;99.90;;;;;;5142571;27;20206;-81
2021/11/01 06:28:30;;;;;;;9.27;2.80;;;9.90;99.90;;;;;;5140409;27;20206;-82
2021/11/01 06:30:59;;;;;;;11.53;2.90;;;9.90;99.90;;;;;;5126532;28;20891;-80
2021/11/01 06:41:47;;;;;;;4.07;1.60;;;9.90;99.90;;;;;;5125078;28;20186;-82
2021/11/01 06:44:28;;;;;;;7.20;2.40;;;9.80;99.90;;;;;;5146645;27;20310;-82
2021/11/01 06:52:47;;;;;;;7.20;2.17;;;9.80;99.90;;;;;;5127190;27;20214;-84
2021/11/01 07:14:46;;;;;;;9.70;2.87;;;9.70;99.90;;;;;;5126467;28;20833;-82
2021/11/01 07:17:17;;;;;;;8.77;2.50;;;9.70;99.90;;;;;;5124593;27;20207;-83
2021/11/01 08:23:45;;;;;;;5.23;1.93;;;9.90;99.90;;;;;;5110438;28;20229;-82
2021/11/01 08:40:39;;;;;;;7.27;1.33;;;10.20;99.90;;;;;;5111390;22;20234;-81
2021/11/01 08:46:06;;;;;;;4.47;1.70;;;10.30;99.90;;;;;;5077345;28;20703;-78
2021/11/01 09:11:21;;;;;;;4.30;1.60;;;10.50;99.90;;;;;;5100044;28;20269;-77
2021/11/01 09:22:28;;;;;;;5.13;1.87;;;10.80;99.90;;;;;;5083883;28;20518;-83
2021/11/01 09:25:02;;;;;;;6.67;1.47;;;10.80;99.90;;;;;;5083298;28;20209;-81
2021/11/01 09:27:31;;;;;;;7.20;1.87;;;10.90;99.90;;;;;;5083963;28;20252;-81
2021/11/01 09:30:22;;;;;;;8.13;2.40;;;11.00;99.90;;;;;;5082818;28;20208;-81
2021/11/01 09:35:53;;;;;;;3.93;1.27;;;11.10;99.90;;;;;;5083020;28;20756;-82
2021/11/01 09:38:42;;;;;;;5.93;2.50;;;11.20;99.90;;;;;;5076890;28;20208;-80
2021/11/01 09:41:10;;;;;;;5.13;2.20;;;11.20;99.90;;;;;;5082530;28;20212;-81
2021/11/01 09:43:38;;;;;;;6.73;1.50;;;11.30;99.90;;;;;;5081851;28;20224;-82
2021/11/01 09:46:09;;;;;;;7.10;1.70;;;11.30;99.90;;;;;;5081961;28;20207;-81
2021/11/01 09:48:36;;;;;;;6.10;1.40;;;11.40;99.90;;;;;;5080387;28;20217;-80
2021/11/01 09:51:03;;;;;;;6.20;1.50;;;11.40;99.90;;;;;;5081890;28;20205;-81
2021/11/01 09:53:39;;;;;;;9.40;2.10;;;11.50;99.90;;;;;;5079352;28;20205;-83
2021/11/01 09:56:18;;;;;;;4.23;1.90;;;11.60;99.90;;;;;;5082817;28;20231;-82
2021/11/01 10:01:31;;;;;;;4.07;1.10;;;11.70;99.90;;;;;;5081370;28;20192;-78
2021/11/01 10:03:58;;;;;;;6.80;2.07;;;11.80;99.90;;;;;;5081289;28;20727;-82
2021/11/01 10:06:30;;;;;;;7.90;2.03;;;11.80;99.90;;;;;;5081090;28;20236;-81
2021/11/01 10:09:00;;;;;;;5.20;1.20;;;11.90;99.90;;;;;;5082052;28;20839;-80
2021/11/01 10:11:30;;;;;;;4.03;1.20;;;12.00;99.90;;;;;;5079075;28;20200;-80
2021/11/01 10:14:00;;;;;;;7.70;1.63;;;12.10;99.90;;;;;;5078427;28;20205;-81
2021/11/01 10:19:26;;;;;;;4.50;1.20;;;12.20;99.90;;;;;;5065996;28;20204;-81
2021/11/01 10:21:55;;;;;;;7.27;1.37;;;12.20;99.90;;;;;;5064793;28;20225;-82
2021/11/01 10:24:32;;;;;;;4.43;1.10;;;12.20;99.90;;;;;;5068527;28;20331;-80
2021/11/01 10:26:58;;;;;;;3.30;1.20;;;12.30;99.90;;;;;;5066862;28;20208;-81
2021/11/01 10:29:25;;;;;;;7.37;1.40;;;12.40;99.90;;;;;;5067577;28;20208;-80
2021/11/01 10:31:52;;;;;;;5.30;1.47;;;12.40;99.90;;;;;;5068614;28;20220;-79
2021/11/01 10:34:27;;;;;;;5.20;0.97;;;12.50;99.90;;;;;;5067775;28;20898;-78
2021/11/01 10:36:58;;;;;;;3.00;1.00;;;12.60;99.90;;;;;;5068843;28;20204;-77
2021/11/01 10:39:26;;;;;;;4.57;1.10;;;12.60;99.90;;;;;;5067416;28;20201;-82
2021/11/01 10:42:03;;;;;;;8.13;1.27;;;12.70;99.90;;;;;;5067081;28;20213;-79
2021/11/01 10:59:14;;;;;;;2.50;0.90;;;13.00;99.90;;;;;;5065590;28;20201;-82
2021/11/01 11:12:53;;;;;;;4.63;1.70;;;13.20;99.90;;;;;;5065019;28;20228;-81
2021/11/01 11:15:25;;;;;;;3.70;0.93;;;13.20;99.90;;;;;;5062095;28;20215;-81
2021/11/01 11:18:05;;;;;;;5.77;1.27;;;13.30;99.90;;;;;;5065891;28;20212;-80
2021/11/01 11:26:26;;;;;;;5.53;1.10;;;13.40;99.90;;;;;;5065055;28;20204;-80
2021/11/01 11:29:25;;;;;;;7.03;1.63;;;13.50;99.90;;;;;;5066023;28;20193;-81
2021/11/01 11:32:14;;;;;;;6.83;1.50;;;13.50;99.90;;;;;;5064884;28;20699;-80
2021/11/01 11:40:59;;;;;;;3.33;1.10;;;13.50;99.90;;;;;;4995720;28;20302;-79
2021/11/01 11:49:11;;;;;;;8.47;1.60;;;13.60;99.90;;;;;;5064243;28;20281;-80
2021/11/01 11:51:40;;;;;;;4.87;1.10;;;13.60;99.90;;;;;;5064828;28;20229;-81
2021/11/01 11:54:08;;;;;;;4.50;1.33;;;13.60;99.90;;;;;;5063716;28;20213;-81
2021/11/01 11:56:37;;;;;;;5.70;1.50;;;13.60;99.90;;;;;;5063741;28;20212;-81
2021/11/01 11:59:07;;;;;;;3.87;1.30;;;13.60;99.90;;;;;;5065469;28;20809;-81
2021/11/01 12:01:36;;;;;;;5.67;1.60;;;13.60;99.90;;;;;;5063686;28;20212;-82
2021/11/01 12:04:07;;;;;;;6.13;1.30;;;13.70;99.90;;;;;;5066356;28;20880;-80
2021/11/01 12:06:50;;;;;;;6.30;1.63;;;13.60;99.90;;;;;;5064379;28;20216;-81
2021/11/01 12:09:23;;;;;;;8.20;1.77;;;13.70;99.90;;;;;;5065629;28;20237;-82
2021/11/01 12:12:16;;;;;;;9.57;1.60;;;13.70;99.90;;;;;;5063799;28;20232;-82
2021/11/01 12:17:30;;;;;;;11.60;1.77;;;13.60;99.90;;;;;;5063639;28;20239;-82
2021/11/01 12:20:00;;;;;;;2.73;1.03;;;13.60;99.90;;;;;;5065870;28;20247;-82
2021/11/01 12:22:36;;;;;;;4.17;1.77;;;13.50;99.90;;;;;;5066713;28;20205;-82
2021/11/01 12:25:08;;;;;;;4.60;1.50;;;13.50;99.90;;;;;;5066042;28;20224;-80
2021/11/01 12:27:40;;;;;;;7.90;1.40;;;13.50;99.90;;;;;;5066341;28;20228;-80
2021/11/01 12:30:12;;;;;;;8.03;1.20;;;13.60;99.90;;;;;;5036658;28;20231;-81
2021/11/01 12:32:40;;;;;;;4.03;1.23;;;13.60;99.90;;;;;;5054062;28;20201;-82
2021/11/01 12:35:14;;;;;;;5.40;1.83;;;13.60;99.90;;;;;;5066403;28;20201;-79
2021/11/01 12:37:52;;;;;;;7.47;1.50;;;13.50;99.90;;;;;;5050998;28;20210;-79
2021/11/01 12:40:25;;;;;;;5.83;1.70;;;13.60;99.90;;;;;;5051992;28;20199;-80
2021/11/01 12:43:07;;;;;;;6.70;1.30;;;13.50;99.90;;;;;;5067934;28;20231;-82
2021/11/01 12:46:03;;;;;;;4.73;1.20;;;13.50;99.90;;;;;;5069418;28;20213;-81
2021/11/01 12:48:56;;;;;;;7.43;1.73;;;13.50;99.90;;;;;;5068270;28;20236;-84
2021/11/01 12:57:01;;;;;;;7.53;1.47;;;13.50;99.90;;;;;;5054682;28;20512;-80
2021/11/01 12:59:40;;;;;;;8.13;1.43;;;13.50;99.90;;;;;;5067016;28;20203;-83
2021/11/01 13:02:09;;;;;;;8.40;1.40;;;13.50;99.90;;;;;;5062585;28;20213;-81
2021/11/01 13:04:38;;;;;;;6.27;1.47;;;13.50;99.90;;;;;;5065183;28;20290;-80
2021/11/01 13:07:14;;;;;;;4.97;1.33;;;13.50;99.90;;;;;;5066401;28;20514;-83
2021/11/01 13:09:54;;;;;;;9.17;1.30;;;13.40;99.90;;;;;;5065114;28;20227;-82
2021/11/01 13:12:37;;;;;;;5.47;1.40;;;13.30;99.90;;;;;;5066198;28;20199;-82
2021/11/01 13:18:09;;;;;;;6.47;1.33;;;13.30;99.90;;;;;;5067970;28;20196;-81
2021/11/01 13:20:38;;;;;;;3.77;1.47;;;13.30;99.90;;;;;;5067572;28;20290;-82
2021/11/01 13:23:06;;;;;;;7.17;1.63;;;13.20;99.90;;;;;;5055499;28;20522;-81
2021/11/01 13:25:43;;;;;;;4.77;1.90;;;13.20;99.90;;;;;;5055671;28;20221;-80
2021/11/01 13:40:03;;;;;;;7.33;1.70;;;13.10;99.90;;;;;;5063570;28;20738;-80
2021/11/01 13:42:32;;;;;;;5.93;1.30;;;13.00;99.90;;;;;;5067186;28;20292;-81
2021/11/01 13:45:12;;;;;;;5.53;1.47;;;13.00;99.90;;;;;;5067191;28;20266;-82
2021/11/01 13:47:44;;;;;;;6.87;1.37;;;13.00;99.90;;;;;;5066715;28;20466;-82
2021/11/01 13:50:12;;;;;;;6.97;1.30;;;12.90;99.90;;;;;;5068989;28;20244;-81
2021/11/01 13:52:40;;;;;;;4.87;1.20;;;12.90;99.90;;;;;;5070831;28;20197;-80
2021/11/01 13:55:12;;;;;;;7.50;1.40;;;12.90;99.90;;;;;;5071287;28;20280;-79
2021/11/01 13:57:53;;;;;;;5.20;1.00;;;12.80;99.90;;;;;;5071281;28;20391;-82
2021/11/01 14:03:09;;;;;;;9.03;1.57;;;12.70;99.90;;;;;;5049285;28;20243;-83
2021/11/01 14:14:28;;;;;;;5.97;1.37;;;12.60;99.90;;;;;;5070911;28;20212;-82
2021/11/01 14:17:00;;;;;;;3.23;1.03;;;12.70;99.90;;;;;;5071532;28;20213;-81
2021/11/01 14:30:54;;;;;;;5.80;1.37;;;12.60;99.90;;;;;;5065497;28;20196;-82
2021/11/01 14:33:47;;;;;;;3.93;1.30;;;12.60;99.90;;;;;;5069895;28;20209;-80
2021/11/01 14:58:40;;;;;;;7.30;1.60;;;12.40;99.90;;;;;;5068045;28;20623;-82
2021/11/01 15:01:41;;;;;;;5.20;1.17;;;12.30;99.90;;;;;;5069610;28;20596;-80
2021/11/01 15:15:15;;;;;;;5.83;1.20;;;12.10;99.90;;;;;;5052604;28;20466;-84
2021/11/01 15:26:27;;;;;;;2.07;0.90;;;12.00;99.90;;;;;;5025178;28;20233;-84
2021/11/01 15:37:21;;;;;;;3.70;0.87;;;11.80;99.90;;;;;;5069645;28;20263;-82
2021/11/01 16:18:11;;;;;;;2.80;0.90;;;11.00;99.90;;;;;;5063635;28;20212;-81
2021/11/01 16:20:38;;;;;;;2.30;0.80;;;11.00;99.90;;;;;;5062422;28;20290;-81
2021/11/01 16:23:28;;;;;;;3.60;1.00;;;10.90;99.90;;;;;;5064888;28;20205;-82
2021/11/01 16:25:59;;;;;;;2.23;0.63;;;10.90;99.90;;;;;;5058430;28;20229;-79
2021/11/01 16:28:28;;;;;;;2.33;0.90;;;10.90;99.90;;;;;;5061349;28;20220;-80
2021/11/01 16:31:12;;;;;;;3.50;0.60;;;10.80;99.90;;;;;;5065475;28;20197;-80
2021/11/01 16:33:44;;;;;;;1.00;0.67;;;10.70;99.90;;;;;;5064955;28;20216;-79
2021/11/01 16:36:21;;;;;;;4.47;1.20;;;10.70;99.90;;;;;;5063878;28;20193;-79
2021/11/01 16:38:52;;;;;;;4.07;1.00;;;10.60;99.90;;;;;;5063700;28;20213;-80
2021/11/01 16:41:21;;;;;;;3.13;1.03;;;10.50;99.90;;;;;;5063523;28;20605;-78
2021/11/01 16:43:49;;;;;;;1.40;0.90;;;10.50;99.90;;;;;;5064956;28;20782;-78
2021/11/01 16:46:16;;;;;;;1.90;1.20;;;10.40;99.90;;;;;;5063380;28;20667;-79
2021/11/01 16:48:45;;;;;;;2.60;1.00;;;10.40;99.90;;;;;;5062512;28;20628;-80
2021/11/01 16:51:13;;;;;;;5.33;1.50;;;10.40;99.90;;;;;;5064180;28;20354;-78
2021/11/01 16:53:44;;;;;;;3.03;0.80;;;10.30;99.90;;;;;;5063705;28;20364;-80
2021/11/01 16:56:30;;;;;;;4.37;1.90;;;10.30;99.90;;;;;;5061571;28;20917;-80
2021/11/01 16:59:10;;;;;;;2.70;1.00;;;10.20;99.90;;;;;;5063770;28;20231;-80
2021/11/01 17:01:38;;;;;;;1.03;0.87;;;10.20;99.90;;;;;;5059339;28;20212;-78
2021/11/01 17:04:09;;;;;;;3.27;1.10;;;10.10;99.90;;;;;;5064170;28;20237;-78
2021/11/01 17:06:41;;;;;;;3.93;0.97;;;10.10;99.90;;;;;;5062355;28;20733;-79
2021/11/01 17:22:53;;;;;;;2.27;1.00;;;9.90;99.90;;;;;;5045032;28;20185;-79
2021/11/01 17:25:23;;;;;;;2.83;1.10;;;9.90;99.90;;;;;;5054145;28;20224;-80
2021/11/01 17:31:01;;;;;;;2.37;1.20;;;9.90;99.90;;;;;;5049094;28;20221;-80
2021/11/01 17:36:25;;;;;;;2.33;1.33;;;9.90;99.90;;;;;;5062372;28;20239;-78
2021/11/01 18:40:21;;;;;;;4.17;1.57;;;9.30;99.90;;;;;;5023983;28;20209;-80
2021/11/01 18:51:28;;;;;;;5.03;1.57;;;9.20;99.90;;;;;;5035624;28;20311;-80
2021/11/01 18:54:02;;;;;;;2.67;1.73;;;9.20;99.90;;;;;;5068761;28;20208;-80
2021/11/01 18:56:34;;;;;;;3.60;1.60;;;9.20;99.90;;;;;;5069240;28;20191;-81
2021/11/01 18:59:03;;;;;;;3.20;2.03;;;9.20;99.90;;;;;;5069561;28;20492;-82
2021/11/01 19:01:32;;;;;;;4.17;2.03;;;9.20;99.90;;;;;;5069278;28;20208;-81
2021/11/01 19:04:02;;;;;;;3.23;1.80;;;9.20;99.90;;;;;;5069531;28;20252;-82
2021/11/01 19:06:40;;;;;;;3.30;1.60;;;9.20;99.90;;;;;;5070106;28;20609;-81
2021/11/01 19:09:21;;;;;;;1.70;1.57;;;9.20;99.90;;;;;;5068940;28;20205;-82
2021/11/01 20:04:40;;;;;;;5.10;4.30;;;9.10;99.90;;;;;;5064524;28;20282;-81
2021/11/01 20:12:57;;;;;;;8.73;3.73;;;9.10;99.90;;;;;;5063145;28;20500;-79
2021/11/01 20:15:52;;;;;;;6.57;3.67;;;9.20;99.90;;;;;;5066832;28;20386;-82
2021/11/01 21:25:21;;;;;;;9.37;3.87;;;8.80;99.90;;;;;;5064531;28;20611;-79
2021/11/01 21:27:48;;;;;;;4.80;3.40;;;8.70;99.90;;;;;;5065473;28;20315;-80
2021/11/01 21:30:16;;;;;;;7.03;3.70;;;8.70;99.90;;;;;;5066052;28;20217;-82
2021/11/01 21:32:43;;;;;;;4.63;3.33;;;8.70;99.90;;;;;;5066121;28;20201;-82
2021/11/01 21:35:13;;;;;;;7.00;3.37;;;8.70;99.90;;;;;;5065493;28;20213;-82
2021/11/01 21:37:41;;;;;;;7.80;4.00;;;8.60;99.90;;;;;;5066625;28;20312;-81
2021/11/01 21:40:12;;;;;;;4.30;3.00;;;8.60;99.90;;;;;;5063828;28;20228;-82
2021/11/01 21:42:42;;;;;;;7.57;4.10;;;8.60;99.90;;;;;;5065433;28;20550;-82
2021/11/01 21:45:10;;;;;;;6.80;3.80;;;8.60;99.90;;;;;;5065597;28;20294;-81
2021/11/01 21:47:36;;;;;;;6.93;3.97;;;8.60;99.90;;;;;;5064904;28;20290;-81
2021/11/01 21:50:05;;;;;;;4.67;3.80;;;8.60;99.90;;;;;;5065859;28;20225;-82
2021/11/01 23:32:10;;;;;;;6.97;4.10;;;8.40;99.90;;;;;;5048657;28;20208;-81
2021/11/01 23:34:37;;;;;;;8.10;4.10;;;8.40;99.90;;;;;;5047656;28;20209;-79
2021/11/01 23:37:04;;;;;;;6.80;4.03;;;8.30;99.90;;;;;;5047519;28;20206;-82
2021/11/01 23:39:32;;;;;;;8.70;4.77;;;8.30;99.90;;;;;;5047607;28;20202;-81
2021/11/01 23:41:59;;;;;;;5.60;4.60;;;8.30;99.90;;;;;;5047994;28;20206;-80
2021/11/01 23:44:25;;;;;;;6.57;4.47;;;8.20;99.90;;;;;;5047358;28;20872;-79
2021/11/01 23:46:52;;;;;;;7.43;4.37;;;8.20;99.90;;;;;;5039501;28;20226;-81
2021/11/01 23:49:19;;;;;;;8.47;5.13;;;8.20;99.90;;;;;;5040576;28;20202;-81
2021/11/01 23:51:52;;;;;;;5.20;4.50;;;8.20;99.90;;;;;;5048490;28;20947;-83
2021/11/01 23:54:38;;;;;;;8.90;4.90;;;8.10;99.90;;;;;;5047352;28;20209;-80
2021/11/01 23:57:07;;;;;;;6.73;4.80;;;8.20;99.90;;;;;;5048777;28;20606;-81
2021/11/01 23:59:34;;;;;;;7.10;4.93;;;8.10;99.90;;;;;;5047714;28;20528;-80
